Pleasant Valley, VA (22848)

7:18 PM EDT on August 24, 2016 (GMT -0400)
Massanutten Technical Center | | Change Station

Elev 1234 ft 38.40 °N, 78.90 °W | Updated 8 seconds ago

Clear
Clear
81.1 °F
Feels Like 84 °F
N
9.2
Wind Variable Wind from South
Gusts 9.8 mph

Today
High -- | Low -- °F
--% Chance of Precip.
Yesterday
High -- | Low -- °F
Precip. -- in
Pressure 30.21 in
Visibility 10.0 miles
Clouds Clear
Heat Index 84 °F
Dew Point 70 °F
Humidity 68%
Rainfall 0.00 in
Snow Depth Not available.
6:38 AM 7:56 PM
Waning Gibbous, 52% visible
METAR KSHD 242255Z AUTO 17006KT 10SM CLR 26/19 A3021 RMK AO2 T02570194
Pressure 30.21 in
Visibility 10.0 miles
Clouds Clear
Heat Index 84 °F
Dew Point 70 °F
Humidity 68%
Rainfall 0.00 in
Snow Depth Not available.
6:38 AM 7:56 PM
Waning Gibbous, 52% visible
METAR KSHD 242255Z AUTO 17006KT 10SM CLR 26/19 A3021 RMK AO2 T02570194

10-Day Weather Forecast

Almanac

Astronomy

Aug. 24, 2016 Rise Set
Actual Time
Civil Twilight
Nautical Twilight
Astronomical Twilight
Moon
Length of Visible Light
Length of Day
Tomorrow will be .
, % of the Moon is Illuminated

Today's Extremes

State Highs State Lows

Community

WunderPhotos

Upload Photos

1,934,731 photos uploaded!

WunderBlog® & News

Nearby

Air Quality

  Air Quality AQ Index Pollutant
Not available.

Snow Depth

Station Depth Elevation

Earthquake Activity

City Distance Mag. Time & Date
Minimum magnitude displayed is 2.5.

Coastal Water Temperatures

Place Temperature

Stations

Nearby Weather Stations

Station Location Temp. Windchill Dew Point Humidity Wind Precip. Elev Updated Type
                   

Watches & Warnings

There are currently no watches in effect.